• Join FlightAware (Why Join?)
  • Login
  • US Flag 
02:13PM EDT


 

Airport Tracker/Info


-or-


 

Live Flight TrackerFlight Track Log ✈ SKW6492 ✈ 29-Apr-2013 ✈ KAUS - KDEN

Flight Track Log - Related Links

Times and Time Zones

All times are in EDT time to prevent confusion due to time zone crossing. See the SKW6492 flight status page for this flight to view local times or setup timezone preferences in your user account.

Time Position Orientation Groundspeed Altitude Reporting Facility
EDT Latitude Longitude Course Direction KTS MPH feet Rate Location/Type
05:45PM 30.4080 -97.6406 291° West  Level FlightAware Approximate
05:45PM 30.2228 -97.7886 291° West 270 311 6,400  Level Houston Center
05:46PM 30.4510 -97.7652 293° West  Level FlightAware Approximate
05:46PM 30.2683 -97.8633 305° West 281 323 9,300  Level Houston Center
05:47PM 30.4960 -97.8890 293° West  Level FlightAware Approximate
05:47PM 30.3233 -97.9461 308° West 293 337 12,200  Level Houston Center
05:48PM 30.5382 -98.0142 291° West  Level FlightAware Approximate
05:48PM 30.3753 -98.0106 313° West 298 343 14,000  Level Houston Center
05:49PM 30.5800 -98.1396 291° West  Level FlightAware Approximate
05:49PM 30.4486 -98.1069 311° West 334 384 16,300  Level Houston Center
05:50PM 30.6217 -98.2651 291° West  Level FlightAware Approximate
05:50PM 30.5133 -98.1936 311° West 348 400 18,700  Level Houston Center
05:51PM 30.5814 -98.2797 313° West 355 409 20,600 1,980 Climbing Houston Center
05:52PM 30.6531 -98.3636 315° West 361 415 22,900 1,860 Climbing Houston Center
05:53PM 30.7242 -98.4472 315° West 358 412 24,500 1,500 Climbing Houston Center
05:54PM 30.7956 -98.5347 314° West 366 421 26,000 1,440 Climbing Houston Center
05:55PM 30.8694 -98.6239 314° West 375 432 27,500 1,320 Climbing Houston Center
05:56PM 30.9769 -98.7053 327° Northwest 386 444 28,800 1,200 Climbing Houston Center
05:57PM 31.0731 -98.7761 328° Northwest 397 457 30,100 1,200 Climbing Houston Center
05:58PM 31.1672 -98.8489 327° Northwest 400 460 31,300 1,200 Climbing Houston Center
05:59PM 31.2633 -98.9217 327° Northwest 404 465 32,600 720 Climbing Houston Center
06:00PM 31.3622 -98.9953 328° Northwest 412 474 32,900 480 Climbing Houston Center
06:01PM 31.3992 -99.0269 324° Northwest 415 478 33,300 1,200 Climbing Fort Worth Center
06:02PM 31.4942 -99.0969 328° Northwest 410 472 34,600 960 Climbing Fort Worth Center
06:03PM 31.5933 -99.1717 327° Northwest 410 472 35,300 840 Climbing Fort Worth Center
06:04PM 31.6925 -99.2494 326° Northwest 415 478 36,300 1,080 Climbing Fort Worth Center
06:05PM 31.7875 -99.3222 327° Northwest 415 478 37,500 840 Climbing Fort Worth Center
06:06PM 31.8825 -99.3928 328° Northwest 415 478 38,000 240 Climbing Fort Worth Center
06:07PM 31.9772 -99.4681 326° Northwest 415 478 38,000  Level Fort Worth Center
06:08PM 32.0761 -99.5439 327° Northwest 415 478 38,000  Level Fort Worth Center
06:09PM 32.1772 -99.6250 326° Northwest 425 489 38,000  Level Fort Worth Center
06:10PM 32.2781 -99.7036 327° Northwest 436 502 38,000  Level Fort Worth Center
06:11PM 32.3808 -99.7847 326° Northwest 436 502 38,000  Level Fort Worth Center
06:12PM 32.4858 -99.8664 327° Northwest 436 502 38,000  Level Fort Worth Center
06:13PM 32.6094 -99.9461 331° Northwest 436 502 38,000  Level Fort Worth Center
06:14PM 32.7228 -100.0186 332° Northwest 446 513 38,000  Level Fort Worth Center
06:15PM 32.8339 -100.0936 330° Northwest 458 527 38,000  Level Fort Worth Center
06:16PM 32.9472 -100.1636 333° Northwest 453 521 38,000  Level Fort Worth Center
06:17PM 33.0583 -100.2364 331° Northwest 453 521 38,000  Level Fort Worth Center
06:18PM 33.1447 -100.2939 331° Northwest 453 521 38,000  Level Fort Worth Center
06:19PM 33.2761 -100.3800 331° Northwest 447 514 38,000  Level Fort Worth Center
06:20PM 33.3850 -100.4511 331° Northwest 447 514 38,000  Level Fort Worth Center
06:21PM 33.4981 -100.5222 332° Northwest 447 514 38,000  Level Fort Worth Center
06:22PM 33.6089 -100.5958 331° Northwest 452 520 38,000  Level Fort Worth Center
06:23PM 33.7158 -100.6672 331° Northwest 452 520 38,000  Level Fort Worth Center
06:24PM 33.8244 -100.7411 331° Northwest 452 520 38,000  Level Fort Worth Center
06:25PM 34.0194 -100.8683 332° Northwest 442 509 38,000  Level Albuquerque Center
06:26PM 34.1269 -100.9400 331° Northwest 442 509 38,000  Level Albuquerque Center
06:28PM 34.2336 -101.0142 330° Northwest 442 509 38,000  Level Albuquerque Center
06:29PM 34.3406 -101.0842 332° Northwest 440 506 38,000  Level Albuquerque Center
06:30PM 34.4481 -101.1575 331° Northwest 441 507 38,000  Level Albuquerque Center
06:31PM 34.5753 -101.2433 331° Northwest 439 505 38,000  Level Albuquerque Center
06:32PM 34.6808 -101.3158 331° Northwest 436 502 38,000  Level Albuquerque Center
06:33PM 34.7867 -101.3881 331° Northwest 436 502 38,000  Level Albuquerque Center
06:34PM 34.8922 -101.4594 331° Northwest 434 499 38,000  Level Albuquerque Center
06:35PM 35.0089 -101.5414 330° Northwest 439 505 38,000  Level Albuquerque Center
06:36PM 35.1175 -101.6153 331° Northwest 443 510 38,000  Level Albuquerque Center
06:37PM 35.2142 -101.6819 331° Northwest 439 505 38,000  Level Albuquerque Center
06:38PM 35.3292 -101.7383 338° Northwest 442 509 38,000  Level Albuquerque Center
06:39PM 35.4636 -101.8017 339° North 440 506 38,000  Level Albuquerque Center
06:40PM 35.5617 -101.8492 338° Northwest 436 502 38,000  Level Albuquerque Center
06:41PM 35.6761 -101.9031 339° North 438 504 38,000  Level Albuquerque Center
06:42PM 35.8156 -101.9669 340° North 444 511 38,000  Level Albuquerque Center
06:43PM 35.9308 -102.0211 339° North 443 510 38,000  Level Albuquerque Center
06:44PM 36.0469 -102.0747 340° North 444 511 38,000  Level Albuquerque Center
06:45PM 36.1614 -102.1286 339° North 443 510 38,000  Level Albuquerque Center
06:46PM 36.2769 -102.1831 339° North 444 511 38,000  Level Albuquerque Center
06:47PM 36.3919 -102.2381 339° North 444 511 38,000 -120 Level Albuquerque Center
06:48PM 36.5081 -102.2928 339° North 445 512 37,800 -360 Descending Albuquerque Center
06:49PM 36.6247 -102.3478 339° North 449 517 37,300 -660 Descending Albuquerque Center
06:50PM 36.7642 -102.4139 339° North 447 514 36,500 -660 Descending Albuquerque Center
06:51PM 36.8761 -102.4678 339° North 438 504 36,000 -300 Descending Albuquerque Center
06:52PM 36.9939 -102.5244 339° North 429 494 36,000  Level Albuquerque Center
06:53PM 37.0989 -102.5758 339° North 425 489 36,000  Level Albuquerque Center
06:54PM 37.2050 -102.6269 339° North 425 489 36,000  Level Albuquerque Center
06:55PM 37.3303 -102.6875 339° North 430 495 36,000  Level Albuquerque Center
06:56PM 37.4383 -102.7400 339° North 434 499 36,000  Level Albuquerque Center
06:57PM 37.5681 -102.7950 341° North 444 511 36,000  Level Denver Center
06:58PM 37.6972 -102.8350 346° North 444 511 36,000  Level Denver Center
06:59PM 37.8053 -102.8889 338° Northwest 428 493 36,000  Level Denver Center
07:01PM 37.9144 -102.9783 327° Northwest 419 482 36,000  Level Denver Center
07:02PM 38.0061 -103.0547 327° Northwest 413 475 36,000  Level Denver Center
07:03PM 38.1119 -103.1422 327° Northwest 408 470 36,000 -60 Level Denver Center
07:04PM 38.2186 -103.2319 327° Northwest 411 473 35,900 -480 Descending Denver Center
07:05PM 38.3236 -103.3200 327° Northwest 411 473 35,100 -900 Descending Denver Center
07:06PM 38.4142 -103.3961 327° Northwest 407 468 34,100 -1,260 Descending Denver Center
07:07PM 38.5233 -103.4894 326° Northwest 418 481 32,600 -1,680 Descending Denver Center
07:08PM 38.6169 -103.5681 327° Northwest 421 484 30,700 -1,980 Descending Denver Center
07:09PM 38.7239 -103.6586 327° Northwest 415 478 28,600 -1,980 Descending Denver Center
07:10PM 38.8186 -103.7400 326° Northwest 426 490 26,700 -1,860 Descending Denver Center
07:11PM 38.9108 -103.8206 326° Northwest 433 498 24,800 -1,920 Descending Denver Center
07:12PM 39.0128 -103.9089 326° Northwest 375 432 22,800 -1,800 Descending Denver Center
07:13PM 39.0917 -103.9753 327° Northwest 342 394 21,200 -1,560 Descending Denver Center
07:14PM 39.1656 -104.0400 326° Northwest 323 372 19,600 -1,680 Descending Denver Center
07:15PM 39.2486 -104.1147 325° Northwest 329 379 17,800 -1,620 Descending Denver Center
07:16PM 39.2814 -104.2164 293° West 302 348 16,400 -1,260 Descending Denver Center
07:17PM 39.3058 -104.3250 286° West 291 335 15,300 -1,020 Descending Denver Center
07:18PM 39.3250 -104.4142 286° West 266 306 14,400 -1,080 Descending Denver Center
07:19PM 39.3864 -104.4586 331° Northwest 269 310 13,200 -1,260 Descending Denver Center
07:20PM 39.4664 -104.4922 342° North 282 325 11,900 -1,080 Descending Denver Center
07:22PM 39.5372 -104.5225 342° North 269 310 10,800 -1,140 Descending Denver Center
07:23PM 39.6158 -104.5675 336° Northwest 246 283 9,400 -1,320 Descending Denver Center
07:24PM 39.6836 -104.6097 334° Northwest 251 289 8,100 -1,080 Descending Denver Center
07:25PM 39.7375 -104.6403 336° Northwest 207 238 7,200 -900 Descending Denver Center